Time;durP1;ratioP1;P1;durP2;ratioP2;P2;SDS_P1;SDS_P2;PMS_P1;PMS_P2;Temp;Humidity;BMP_temperature;BMP_pressure;BME280_temperature;BME280_humidity;BME280_pressure;Samples;Min_cycle;Max_cycle;Signal;HPM_P1;HPM_P2
2022/10/19 00:01:28;;;;;;;15.15;13.65;;;16.90;99.90;;;;;;5058210;28;20204;-87
2022/10/19 00:03:55;;;;;;;15.10;12.97;;;16.90;99.90;;;;;;5044367;28;20288;-86
2022/10/19 00:06:26;;;;;;;14.80;13.40;;;16.80;99.90;;;;;;5048837;28;20197;-86
2022/10/19 00:08:58;;;;;;;14.73;12.77;;;16.90;99.90;;;;;;5042637;28;20202;-87
2022/10/19 00:11:24;;;;;;;15.47;13.80;;;16.90;99.90;;;;;;5045467;28;20226;-88
2022/10/19 00:13:51;;;;;;;15.97;13.20;;;16.90;99.90;;;;;;5043892;28;20222;-87
2022/10/19 00:16:17;;;;;;;15.40;13.87;;;16.80;99.90;;;;;;5040315;28;20292;-86
2022/10/19 00:18:44;;;;;;;15.53;14.03;;;16.80;99.90;;;;;;5045678;28;20181;-87
2022/10/19 00:21:15;;;;;;;15.20;13.60;;;16.80;99.90;;;;;;5045550;28;20188;-87
2022/10/19 00:23:42;;;;;;;16.63;13.60;;;16.80;99.90;;;;;;5051406;28;20272;-87
2022/10/19 00:26:07;;;;;;;15.27;13.87;;;16.80;99.90;;;;;;5048888;28;20187;-85
2022/10/19 00:28:33;;;;;;;15.43;13.82;;;16.80;99.90;;;;;;5049939;28;20190;-87
2022/10/19 00:31:14;;;;;;;16.37;14.23;;;16.80;99.90;;;;;;5043409;28;20284;-88
2022/10/19 00:33:41;;;;;;;15.77;14.17;;;16.80;99.90;;;;;;5042826;28;20214;-87
2022/10/19 00:36:25;;;;;;;15.33;13.90;;;16.80;99.90;;;;;;5049859;28;20190;-88
2022/10/19 00:38:52;;;;;;;17.75;15.00;;;16.80;99.90;;;;;;5043982;28;20177;-87
2022/10/19 00:41:20;;;;;;;16.60;14.25;;;16.80;99.90;;;;;;5046922;28;20197;-86
2022/10/19 00:44:01;;;;;;;16.00;14.53;;;16.80;99.90;;;;;;5043355;28;20634;-87
2022/10/19 00:46:29;;;;;;;16.63;15.13;;;16.80;99.90;;;;;;5038582;28;20259;-87
2022/10/19 00:49:07;;;;;;;16.90;14.90;;;16.90;99.90;;;;;;5035873;28;20239;-88
2022/10/19 00:51:35;;;;;;;15.63;14.17;;;16.80;99.90;;;;;;5052179;28;20199;-88
2022/10/19 00:54:04;;;;;;;16.40;14.87;;;16.80;99.90;;;;;;5050304;28;20552;-87
2022/10/19 00:56:30;;;;;;;16.13;14.53;;;16.70;99.90;;;;;;5053819;28;20169;-87
2022/10/19 00:58:56;;;;;;;17.07;15.43;;;16.70;99.90;;;;;;5043891;28;20213;-87
2022/10/19 01:01:24;;;;;;;15.23;13.93;;;16.70;99.90;;;;;;5043478;28;20183;-87
2022/10/19 01:03:49;;;;;;;15.87;14.27;;;16.60;99.90;;;;;;5045641;28;20207;-87
2022/10/19 01:06:17;;;;;;;16.80;15.30;;;16.70;99.90;;;;;;5045379;28;20230;-87
2022/10/19 01:08:43;;;;;;;16.57;15.07;;;16.80;99.90;;;;;;5044170;28;20630;-87
2022/10/19 01:11:46;;;;;;;16.33;14.73;;;16.80;99.90;;;;;;5045021;28;20200;-87
2022/10/19 01:14:31;;;;;;;15.37;13.97;;;16.80;99.90;;;;;;5040940;28;20202;-87
2022/10/19 01:17:02;;;;;;;14.70;13.30;;;16.80;99.90;;;;;;5036721;28;20213;-88
2022/10/19 01:19:53;;;;;;;16.53;14.83;;;16.80;99.90;;;;;;5038818;28;20183;-87
2022/10/19 01:22:30;;;;;;;16.85;15.25;;;16.80;99.90;;;;;;5048113;28;20198;-88
2022/10/19 01:25:07;;;;;;;15.32;13.70;;;16.80;99.90;;;;;;5040193;28;20260;-88
2022/10/19 01:27:57;;;;;;;16.20;14.63;;;16.90;99.90;;;;;;5045895;28;20225;-86
2022/10/19 01:30:41;;;;;;;15.52;14.02;;;17.00;99.90;;;;;;5043647;28;20204;-86
2022/10/19 01:33:20;;;;;;;16.42;15.02;;;17.00;99.90;;;;;;5051976;28;20659;-87
2022/10/19 01:36:24;;;;;;;15.65;14.35;;;16.90;99.90;;;;;;5032342;28;20195;-86
2022/10/19 01:38:58;;;;;;;15.77;14.38;;;16.90;99.90;;;;;;5045011;28;20268;-86
2022/10/19 01:42:10;;;;;;;16.85;15.45;;;16.90;99.90;;;;;;5041020;28;20191;-87
2022/10/19 01:44:35;;;;;;;16.90;15.50;;;16.90;99.90;;;;;;5038005;28;20206;-86
2022/10/19 01:47:05;;;;;;;16.10;14.70;;;16.80;99.90;;;;;;5049383;28;20241;-86
2022/10/19 01:49:40;;;;;;;17.17;15.68;;;16.80;99.90;;;;;;5032522;28;20781;-87
2022/10/19 01:52:09;;;;;;;17.10;15.50;;;16.90;99.90;;;;;;5049164;28;20225;-86
2022/10/19 01:54:45;;;;;;;18.30;16.45;;;16.90;99.90;;;;;;5045485;28;20194;-87
2022/10/19 01:57:12;;;;;;;18.42;16.60;;;16.80;99.90;;;;;;5044116;28;20200;-87
2022/10/19 01:59:39;;;;;;;17.33;15.83;;;16.80;99.90;;;;;;5047304;28;20190;-86
2022/10/19 02:02:08;;;;;;;18.17;16.40;;;16.80;99.90;;;;;;5061372;28;20294;-87
2022/10/19 02:04:35;;;;;;;17.13;15.40;;;16.70;99.90;;;;;;5058695;28;20200;-86
2022/10/19 02:07:03;;;;;;;17.50;15.95;;;16.70;99.90;;;;;;5045953;28;20192;-87
2022/10/19 02:09:29;;;;;;;19.00;17.10;;;16.70;99.90;;;;;;5029585;28;20188;-87
2022/10/19 02:11:58;;;;;;;18.48;16.60;;;16.80;99.90;;;;;;5033230;28;20282;-87
2022/10/19 02:14:31;;;;;;;16.08;14.73;;;16.70;99.90;;;;;;5048717;28;20188;-86
2022/10/19 02:17:11;;;;;;;16.73;15.05;;;16.80;99.90;;;;;;5047786;28;20746;-87
2022/10/19 02:19:37;;;;;;;17.25;15.57;;;16.80;99.90;;;;;;5047925;28;20174;-85
2022/10/19 02:22:03;;;;;;;17.30;15.68;;;16.90;99.90;;;;;;5036231;28;20693;-87
2022/10/19 02:24:28;;;;;;;17.85;16.15;;;16.90;99.90;;;;;;5043805;28;20255;-87
2022/10/19 02:26:55;;;;;;;18.23;16.30;;;16.80;99.90;;;;;;5047354;28;20192;-87
2022/10/19 02:29:21;;;;;;;16.60;15.20;;;16.80;99.90;;;;;;5047681;28;20751;-86
2022/10/19 02:31:47;;;;;;;18.13;16.52;;;16.80;99.90;;;;;;5047509;28;20366;-86
2022/10/19 02:34:13;;;;;;;18.10;16.50;;;16.80;99.90;;;;;;5046925;28;20195;-86
2022/10/19 02:36:39;;;;;;;17.42;15.93;;;16.90;99.90;;;;;;5059932;28;20275;-87
2022/10/19 02:39:06;;;;;;;17.20;15.60;;;16.90;99.90;;;;;;5056818;28;20202;-87
2022/10/19 02:41:43;;;;;;;16.00;14.70;;;16.90;99.90;;;;;;5049312;28;20188;-86
2022/10/19 02:44:18;;;;;;;18.10;16.60;;;16.90;99.90;;;;;;5052553;28;20195;-85
2022/10/19 02:46:49;;;;;;;17.48;16.02;;;16.90;99.90;;;;;;5051737;28;20679;-86
2022/10/19 02:49:15;;;;;;;19.38;17.48;;;16.90;99.90;;;;;;5043954;28;20187;-87
2022/10/19 02:52:02;;;;;;;18.13;16.52;;;16.80;99.90;;;;;;5045661;28;20275;-87
2022/10/19 02:54:28;;;;;;;19.20;17.50;;;16.70;99.90;;;;;;5043230;28;20200;-86
2022/10/19 02:56:54;;;;;;;18.98;17.35;;;16.80;99.90;;;;;;5046437;28;20579;-86
2022/10/19 02:59:20;;;;;;;17.58;15.88;;;16.80;99.90;;;;;;5051542;28;20191;-87
2022/10/19 03:01:46;;;;;;;16.88;15.48;;;16.70;99.90;;;;;;5053372;28;20194;-85
2022/10/19 03:04:12;;;;;;;18.15;16.55;;;16.70;99.90;;;;;;5056444;28;20184;-85
2022/10/19 03:06:37;;;;;;;18.77;17.08;;;16.60;99.90;;;;;;5059011;28;20183;-84
2022/10/19 03:09:03;;;;;;;18.63;16.90;;;16.60;99.90;;;;;;5053649;28;20206;-87
2022/10/19 03:11:29;;;;;;;19.33;17.45;;;16.60;99.90;;;;;;5042912;28;20551;-87
2022/10/19 03:13:54;;;;;;;18.33;16.63;;;16.40;99.90;;;;;;5054493;28;20218;-86
2022/10/19 03:16:20;;;;;;;18.77;16.95;;;16.50;99.90;;;;;;5044451;28;20647;-86
2022/10/19 03:18:48;;;;;;;18.63;16.85;;;16.50;99.90;;;;;;5042818;28;20684;-87
2022/10/19 03:21:13;;;;;;;17.88;16.15;;;16.40;99.90;;;;;;5046539;28;20201;-87
2022/10/19 03:23:40;;;;;;;17.77;15.97;;;16.40;99.90;;;;;;5044403;28;20214;-87
2022/10/19 03:26:07;;;;;;;17.50;15.90;;;16.40;99.90;;;;;;5043218;28;20188;-87
2022/10/19 03:28:33;;;;;;;19.03;17.17;;;16.50;99.90;;;;;;5044844;28;20212;-87
2022/10/19 03:30:59;;;;;;;18.43;16.67;;;16.40;99.90;;;;;;5048522;28;20196;-87
2022/10/19 03:33:25;;;;;;;19.07;17.17;;;16.30;99.90;;;;;;5049497;28;20230;-87
2022/10/19 03:36:10;;;;;;;19.80;17.73;;;16.30;99.90;;;;;;5024254;28;20190;-85
2022/10/19 03:38:36;;;;;;;19.33;17.43;;;16.30;99.90;;;;;;5042668;28;20192;-86
2022/10/19 03:41:05;;;;;;;19.63;17.30;;;16.20;99.90;;;;;;5044192;28;20193;-87
2022/10/19 03:43:31;;;;;;;18.93;16.93;;;16.20;99.90;;;;;;5043977;28;20214;-86
2022/10/19 03:45:56;;;;;;;19.23;17.23;;;16.20;99.90;;;;;;5051248;28;20201;-87
2022/10/19 03:48:22;;;;;;;21.43;19.23;;;16.20;99.90;;;;;;5048712;28;20200;-87
2022/10/19 03:50:48;;;;;;;18.90;17.00;;;16.10;99.90;;;;;;5042158;28;20247;-87
2022/10/19 03:53:13;;;;;;;19.60;17.53;;;16.00;99.90;;;;;;5046748;28;20227;-87
2022/10/19 03:55:39;;;;;;;21.27;17.97;;;16.00;99.90;;;;;;5045086;28;20189;-85
2022/10/19 03:58:05;;;;;;;18.87;16.53;;;16.00;99.90;;;;;;5050906;28;20574;-87
2022/10/19 04:00:30;;;;;;;18.83;16.47;;;16.00;99.90;;;;;;5050092;28;20203;-89
2022/10/19 04:02:57;;;;;;;18.37;16.47;;;16.00;99.90;;;;;;5045111;28;20216;-87
2022/10/19 04:05:23;;;;;;;19.00;17.00;;;16.10;99.90;;;;;;5046831;28;20192;-87
2022/10/19 04:07:50;;;;;;;19.33;17.23;;;16.20;99.90;;;;;;5036519;28;20200;-87
2022/10/19 04:10:15;;;;;;;20.83;18.70;;;16.10;99.90;;;;;;5045574;28;20188;-87
2022/10/19 04:12:41;;;;;;;19.97;17.97;;;16.00;99.90;;;;;;5020158;28;20238;-87
2022/10/19 04:15:07;;;;;;;19.87;17.97;;;16.00;99.90;;;;;;5048090;28;20208;-86
2022/10/19 04:17:33;;;;;;;19.57;17.47;;;16.00;99.90;;;;;;5050791;28;20189;-87
2022/10/19 04:19:59;;;;;;;22.37;20.20;;;16.00;99.90;;;;;;5045778;28;20192;-87
2022/10/19 04:22:24;;;;;;;22.73;20.33;;;15.90;99.90;;;;;;5046124;28;20292;-87
2022/10/19 04:24:50;;;;;;;22.93;19.97;;;15.90;99.90;;;;;;5046509;28;20537;-86
2022/10/19 04:27:16;;;;;;;22.30;20.00;;;15.90;99.90;;;;;;5046594;28;20194;-87
2022/10/19 04:29:42;;;;;;;20.57;18.70;;;15.90;99.90;;;;;;5054027;28;20198;-87
2022/10/19 04:32:07;;;;;;;22.60;19.53;;;15.80;99.90;;;;;;5055020;28;20239;-87
2022/10/19 04:34:33;;;;;;;27.83;24.93;;;15.80;99.90;;;;;;5045562;28;20244;-88
2022/10/19 04:37:00;;;;;;;26.17;23.50;;;15.80;99.90;;;;;;5054568;28;20190;-85
2022/10/19 04:39:25;;;;;;;20.83;18.77;;;15.70;99.90;;;;;;5062777;28;20532;-84
2022/10/19 04:41:51;;;;;;;19.97;17.87;;;15.60;99.90;;;;;;5059909;28;20186;-85
2022/10/19 04:44:17;;;;;;;25.03;18.30;;;15.60;99.90;;;;;;5064504;28;20192;-83
2022/10/19 04:46:42;;;;;;;22.47;18.30;;;15.60;99.90;;;;;;5067483;28;20209;-85
2022/10/19 04:49:08;;;;;;;22.17;19.20;;;15.60;99.90;;;;;;5060003;28;20196;-84
2022/10/19 04:51:34;;;;;;;20.57;18.57;;;15.60;99.90;;;;;;5054919;28;20211;-86
2022/10/19 04:54:00;;;;;;;22.63;19.43;;;15.60;99.90;;;;;;5055198;28;20619;-86
2022/10/19 04:56:27;;;;;;;23.13;19.00;;;15.60;99.90;;;;;;5047626;28;20644;-87
2022/10/19 04:58:56;;;;;;;19.40;17.47;;;15.60;99.90;;;;;;5046252;28;20678;-86
2022/10/19 05:01:24;;;;;;;22.17;18.43;;;15.60;99.90;;;;;;5045436;28;20224;-87
2022/10/19 05:03:57;;;;;;;21.73;18.73;;;15.60;99.90;;;;;;5041563;28;20858;-84
2022/10/19 05:06:23;;;;;;;20.57;18.47;;;15.70;99.90;;;;;;5054581;28;20192;-87
2022/10/19 05:08:49;;;;;;;20.70;18.53;;;15.70;99.90;;;;;;5056763;28;20203;-85
2022/10/19 05:11:16;;;;;;;21.27;18.47;;;15.60;99.90;;;;;;5057981;28;20204;-85
2022/10/19 05:13:43;;;;;;;20.83;17.87;;;15.60;99.90;;;;;;5049202;28;20235;-86
2022/10/19 05:16:12;;;;;;;21.17;19.13;;;15.70;99.90;;;;;;5045674;28;20215;-87
2022/10/19 05:18:39;;;;;;;22.70;18.50;;;15.70;99.90;;;;;;5054879;28;20649;-85
2022/10/19 05:21:10;;;;;;;23.43;21.03;;;15.60;99.90;;;;;;5058257;28;20192;-87
2022/10/19 05:23:36;;;;;;;20.67;18.57;;;15.60;99.90;;;;;;5034271;28;20223;-86
2022/10/19 05:26:08;;;;;;;21.33;19.03;;;15.50;99.90;;;;;;5053300;28;20191;-87
2022/10/19 05:28:34;;;;;;;21.80;18.13;;;15.60;99.90;;;;;;5046046;28;20246;-87
2022/10/19 05:31:20;;;;;;;21.87;18.00;;;15.60;99.90;;;;;;5045024;28;20262;-87
2022/10/19 05:33:46;;;;;;;20.30;18.10;;;15.60;99.90;;;;;;5052761;28;20224;-87
2022/10/19 05:36:19;;;;;;;23.37;19.20;;;15.70;99.90;;;;;;5051757;28;20205;-87
2022/10/19 05:38:47;;;;;;;23.67;19.00;;;15.60;99.90;;;;;;5053904;28;20190;-86
2022/10/19 05:41:13;;;;;;;21.20;19.00;;;15.60;99.90;;;;;;5044635;28;20189;-87
2022/10/19 05:43:41;;;;;;;21.30;18.90;;;15.70;99.90;;;;;;5040379;28;20255;-87
2022/10/19 05:46:10;;;;;;;21.70;19.57;;;15.60;99.90;;;;;;5044407;28;20200;-88
2022/10/19 05:48:36;;;;;;;21.77;19.37;;;15.60;99.90;;;;;;5046023;28;20200;-87
2022/10/19 05:51:04;;;;;;;22.47;20.17;;;15.60;99.90;;;;;;5050419;28;20191;-88
2022/10/19 05:53:31;;;;;;;20.97;18.73;;;15.70;99.90;;;;;;5048973;28;20686;-87
2022/10/19 05:55:57;;;;;;;21.33;19.17;;;15.70;99.90;;;;;;5043894;28;20181;-87
2022/10/19 05:58:23;;;;;;;21.47;19.27;;;15.70;99.90;;;;;;5053219;28;20188;-87
2022/10/19 06:00:52;;;;;;;20.50;18.50;;;15.70;99.90;;;;;;5047072;28;20247;-87
2022/10/19 06:03:18;;;;;;;21.27;19.27;;;15.70;99.90;;;;;;5049762;28;20260;-88
2022/10/19 06:05:44;;;;;;;20.83;18.73;;;15.80;99.90;;;;;;5043011;28;20181;-87
2022/10/19 06:08:09;;;;;;;23.23;21.00;;;15.70;99.90;;;;;;5039834;28;20196;-88
2022/10/19 06:10:35;;;;;;;20.03;18.17;;;15.70;99.90;;;;;;5041072;28;20200;-88
2022/10/19 06:13:00;;;;;;;19.27;17.37;;;15.70;99.90;;;;;;5025846;28;20288;-88
2022/10/19 06:15:26;;;;;;;20.43;18.37;;;15.70;99.90;;;;;;5047145;28;20199;-87
2022/10/19 06:17:52;;;;;;;22.53;19.27;;;15.70;99.90;;;;;;5048994;28;20176;-88
2022/10/19 06:20:17;;;;;;;20.33;18.33;;;15.70;99.90;;;;;;5042010;28;20196;-87
2022/10/19 06:22:43;;;;;;;20.43;18.47;;;15.80;99.90;;;;;;5039644;28;20208;-87
2022/10/19 06:25:09;;;;;;;18.77;16.87;;;15.70;99.90;;;;;;5045523;28;20188;-87
2022/10/19 06:27:34;;;;;;;19.87;17.77;;;15.80;99.90;;;;;;5047882;28;20188;-87
2022/10/19 06:30:00;;;;;;;19.63;17.73;;;15.80;99.90;;;;;;5054860;28;20228;-87
2022/10/19 06:32:27;;;;;;;19.90;18.00;;;15.90;99.90;;;;;;5042723;28;20841;-88
2022/10/19 06:34:52;;;;;;;18.53;16.70;;;15.90;99.90;;;;;;5042954;28;20188;-87
2022/10/19 06:37:18;;;;;;;21.80;16.90;;;15.80;99.90;;;;;;5041588;28;20198;-89
2022/10/19 06:39:44;;;;;;;18.43;16.43;;;15.90;99.90;;;;;;5061550;28;20197;-89
2022/10/19 06:42:09;;;;;;;19.03;17.13;;;15.90;99.90;;;;;;5058981;28;20211;-91
2022/10/19 06:44:35;;;;;;;19.97;17.83;;;15.90;99.90;;;;;;5050586;28;20189;-86
2022/10/19 06:47:01;;;;;;;18.43;16.60;;;16.00;99.90;;;;;;5057663;28;20200;-87
2022/10/19 06:49:27;;;;;;;18.70;16.80;;;16.00;99.90;;;;;;5045582;28;20190;-87
2022/10/19 06:51:52;;;;;;;19.77;17.77;;;16.10;99.90;;;;;;5048461;28;20198;-87
2022/10/19 06:54:18;;;;;;;17.23;15.43;;;16.10;99.90;;;;;;5052871;28;20186;-86
2022/10/19 06:56:44;;;;;;;17.17;15.47;;;16.20;99.90;;;;;;5048866;28;20330;-88
2022/10/19 06:59:11;;;;;;;17.57;15.63;;;16.20;99.90;;;;;;5041204;28;20198;-87
2022/10/19 07:01:37;;;;;;;17.10;15.43;;;16.20;99.90;;;;;;5045555;28;20189;-87
2022/10/19 07:04:03;;;;;;;17.20;15.40;;;16.10;99.90;;;;;;5050376;28;20211;-87
2022/10/19 07:06:28;;;;;;;15.70;14.10;;;16.10;99.90;;;;;;5039729;28;20220;-87
2022/10/19 07:08:54;;;;;;;16.33;14.47;;;16.10;99.90;;;;;;5052420;28;20697;-85
2022/10/19 07:11:21;;;;;;;16.03;14.53;;;16.30;99.90;;;;;;5058546;28;20201;-87
2022/10/19 07:13:47;;;;;;;15.27;13.73;;;16.30;99.90;;;;;;5055085;28;20219;-87
2022/10/19 07:16:15;;;;;;;14.53;13.07;;;16.40;99.90;;;;;;5058907;28;20262;-87
2022/10/19 07:18:41;;;;;;;15.47;13.73;;;16.40;99.90;;;;;;5047302;28;20706;-87
2022/10/19 07:21:10;;;;;;;17.00;14.03;;;16.50;99.90;;;;;;5057641;28;20551;-86
2022/10/19 07:23:37;;;;;;;16.40;14.70;;;16.40;99.90;;;;;;5042522;28;20216;-88
2022/10/19 07:26:17;;;;;;;16.67;15.07;;;16.40;99.90;;;;;;5042501;28;20675;-87
2022/10/19 07:28:45;;;;;;;16.50;14.63;;;16.30;99.90;;;;;;5044042;28;20173;-88
2022/10/19 07:31:13;;;;;;;16.43;14.73;;;16.30;99.90;;;;;;5055656;28;20218;-87
2022/10/19 07:33:39;;;;;;;17.70;15.10;;;16.20;99.90;;;;;;5052920;28;20213;-87
2022/10/19 07:36:07;;;;;;;16.80;15.10;;;16.20;99.90;;;;;;5047573;28;20188;-86
2022/10/19 07:38:34;;;;;;;19.07;15.53;;;16.20;99.90;;;;;;5047350;28;20268;-86
2022/10/19 07:41:14;;;;;;;17.23;14.70;;;16.20;99.90;;;;;;5042865;28;20184;-86
2022/10/19 07:43:42;;;;;;;19.13;15.47;;;16.20;99.90;;;;;;5050227;28;20212;-86
2022/10/19 07:46:11;;;;;;;16.30;14.53;;;16.20;99.90;;;;;;5058437;28;20554;-86
2022/10/19 07:48:37;;;;;;;18.83;15.40;;;16.10;99.90;;;;;;5046893;28;20193;-86
2022/10/19 07:51:05;;;;;;;18.53;15.30;;;16.10;99.90;;;;;;5043141;28;20683;-88
2022/10/19 07:53:32;;;;;;;16.80;14.00;;;16.20;99.90;;;;;;5042664;28;20217;-87
2022/10/19 07:56:06;;;;;;;16.70;15.03;;;16.20;99.90;;;;;;5043578;28;20180;-87
2022/10/19 07:58:33;;;;;;;15.63;14.03;;;16.20;99.90;;;;;;5055949;28;20439;-85
2022/10/19 08:01:11;;;;;;;18.17;14.03;;;16.20;99.90;;;;;;5046810;28;20202;-89
2022/10/19 08:03:37;;;;;;;14.63;13.13;;;16.40;99.90;;;;;;5051101;28;20699;-87
2022/10/19 08:06:06;;;;;;;14.87;13.43;;;16.60;99.90;;;;;;5046784;28;20193;-87
2022/10/19 08:08:32;;;;;;;15.33;13.73;;;16.60;99.90;;;;;;5047026;28;20197;-87
2022/10/19 08:11:08;;;;;;;16.07;13.53;;;16.60;99.90;;;;;;5042248;28;20212;-87
2022/10/19 08:13:34;;;;;;;14.40;12.90;;;16.60;99.90;;;;;;5041763;28;20218;-87
2022/10/19 08:16:00;;;;;;;14.97;13.57;;;16.70;99.90;;;;;;5053292;28;20197;-87
2022/10/19 08:18:26;;;;;;;13.27;12.00;;;16.90;99.90;;;;;;5047272;28;20192;-87
2022/10/19 08:20:51;;;;;;;13.07;11.77;;;17.10;99.90;;;;;;5040856;28;20186;-87
2022/10/19 08:23:17;;;;;;;14.07;12.70;;;17.10;99.90;;;;;;5041738;28;20217;-88
2022/10/19 08:25:43;;;;;;;14.40;13.03;;;17.20;99.90;;;;;;5044736;28;20203;-87
2022/10/19 08:28:08;;;;;;;15.47;14.07;;;17.30;99.90;;;;;;5032759;28;20196;-87
2022/10/19 08:30:35;;;;;;;14.93;13.67;;;17.30;99.90;;;;;;5049114;28;20202;-87
2022/10/19 08:33:02;;;;;;;13.80;12.30;;;17.50;99.90;;;;;;5044524;28;20223;-87
2022/10/19 08:35:29;;;;;;;14.57;13.07;;;17.60;99.90;;;;;;5051658;28;20191;-88
2022/10/19 08:37:55;;;;;;;15.87;14.27;;;17.50;99.90;;;;;;5043791;28;20205;-87
2022/10/19 08:40:27;;;;;;;16.00;14.40;;;17.50;99.90;;;;;;5042609;28;20189;-87
2022/10/19 08:43:29;;;;;;;16.90;12.97;;;17.40;99.90;;;;;;5038432;28;20221;-87
2022/10/19 08:46:18;;;;;;;14.57;13.10;;;17.30;99.90;;;;;;5042828;28;20179;-87
2022/10/19 08:48:45;;;;;;;13.80;12.43;;;17.50;99.90;;;;;;5041939;28;20257;-87
2022/10/19 08:51:12;;;;;;;13.87;12.60;;;17.40;99.90;;;;;;5043571;28;20293;-87
2022/10/19 08:53:51;;;;;;;15.03;13.00;;;17.50;99.90;;;;;;5046162;28;20227;-88
2022/10/19 08:56:21;;;;;;;17.07;12.90;;;17.50;99.90;;;;;;5049912;28;20668;-87
2022/10/19 08:58:56;;;;;;;16.07;12.73;;;17.50;99.90;;;;;;5055227;28;20185;-87
2022/10/19 09:01:32;;;;;;;13.63;12.23;;;17.50;99.90;;;;;;5041940;28;20212;-88
2022/10/19 09:04:03;;;;;;;13.57;12.17;;;17.40;99.90;;;;;;5049653;28;20212;-87
2022/10/19 09:06:47;;;;;;;13.30;12.10;;;17.40;99.90;;;;;;5043399;28;20222;-87
2022/10/19 09:09:17;;;;;;;12.30;11.10;;;17.40;99.90;;;;;;5046626;28;20250;-87
2022/10/19 09:11:49;;;;;;;13.50;11.93;;;17.30;99.90;;;;;;5046733;28;20216;-88
2022/10/19 09:14:28;;;;;;;13.73;12.37;;;17.30;99.90;;;;;;5036725;28;20212;-87
2022/10/19 09:17:01;;;;;;;12.80;11.47;;;17.30;99.90;;;;;;5047220;28;20196;-87
2022/10/19 09:19:30;;;;;;;13.97;12.03;;;17.30;99.90;;;;;;5042312;28;20191;-87
2022/10/19 09:22:00;;;;;;;13.03;11.17;;;17.50;99.90;;;;;;5049328;28;20202;-87
2022/10/19 09:24:38;;;;;;;12.47;11.30;;;17.60;99.90;;;;;;5046773;28;20256;-88
2022/10/19 09:27:09;;;;;;;12.00;10.90;;;17.80;99.90;;;;;;5062633;28;20169;-88
2022/10/19 09:29:47;;;;;;;11.97;10.97;;;17.70;99.90;;;;;;5055624;28;20211;-88
2022/10/19 09:32:18;;;;;;;13.13;10.75;;;17.80;99.90;;;;;;5048889;28;20216;-87
2022/10/19 09:35:01;;;;;;;10.77;9.77;;;17.90;99.90;;;;;;5044217;28;20180;-87
2022/10/19 09:37:28;;;;;;;10.98;9.88;;;18.00;99.90;;;;;;5038775;28;20211;-87
2022/10/19 09:39:55;;;;;;;12.60;11.00;;;18.00;99.90;;;;;;5042387;28;20212;-87
2022/10/19 09:42:31;;;;;;;11.93;10.82;;;18.00;99.90;;;;;;5045458;28;20215;-87
2022/10/19 09:45:21;;;;;;;10.93;9.90;;;18.00;99.90;;;;;;5040535;28;20461;-87
2022/10/19 09:47:47;;;;;;;10.67;9.67;;;18.00;99.90;;;;;;5037540;28;20295;-87
2022/10/19 09:50:24;;;;;;;11.23;9.93;;;18.00;99.90;;;;;;5043186;28;20182;-86
2022/10/19 09:52:55;;;;;;;12.38;10.20;;;18.00;99.90;;;;;;5042531;28;20257;-87
2022/10/19 09:55:44;;;;;;;11.67;10.47;;;18.00;99.90;;;;;;5039642;28;20201;-87
2022/10/19 09:58:12;;;;;;;11.10;10.00;;;18.00;99.90;;;;;;5049806;28;20258;-88
2022/10/19 10:00:47;;;;;;;11.23;10.25;;;17.80;99.90;;;;;;5052358;28;20189;-88
2022/10/19 10:03:22;;;;;;;11.77;9.53;;;17.90;99.90;;;;;;5052716;28;20301;-87
2022/10/19 10:05:48;;;;;;;14.27;11.18;;;18.10;99.90;;;;;;5048105;28;20194;-87
2022/10/19 10:08:18;;;;;;;11.80;10.80;;;18.20;99.90;;;;;;5048790;28;20219;-87
2022/10/19 10:10:51;;;;;;;12.07;11.02;;;18.20;99.90;;;;;;5046366;28;20656;-87
2022/10/19 10:13:24;;;;;;;11.18;10.10;;;18.00;99.90;;;;;;5047922;28;20219;-87
2022/10/19 10:15:55;;;;;;;10.70;9.73;;;18.00;99.90;;;;;;5043460;28;20207;-87
2022/10/19 10:18:23;;;;;;;11.23;10.05;;;18.10;99.90;;;;;;5047863;28;20767;-87
2022/10/19 10:21:00;;;;;;;13.80;11.00;;;18.20;99.90;;;;;;5047741;28;20264;-88
2022/10/19 10:23:30;;;;;;;11.02;10.13;;;18.30;99.90;;;;;;5049683;28;20218;-87
2022/10/19 10:25:57;;;;;;;11.23;10.32;;;18.40;99.90;;;;;;5049899;28;20188;-86
2022/10/19 10:28:26;;;;;;;10.82;9.93;;;18.40;99.90;;;;;;5044075;28;20188;-86
2022/10/19 10:31:04;;;;;;;12.60;10.82;;;18.40;99.90;;;;;;5044741;28;20199;-87
2022/10/19 10:33:34;;;;;;;12.77;11.52;;;18.30;99.90;;;;;;5044268;28;20224;-87
2022/10/19 10:36:07;;;;;;;11.63;10.45;;;18.30;99.90;;;;;;5047226;28;20244;-87
2022/10/19 10:38:40;;;;;;;10.65;9.38;;;18.40;99.90;;;;;;5046290;28;20241;-87
2022/10/19 10:41:14;;;;;;;11.02;9.88;;;18.60;99.90;;;;;;5051246;28;20183;-85
2022/10/19 10:43:53;;;;;;;11.23;10.32;;;18.80;99.90;;;;;;5049661;28;20238;-86
2022/10/19 10:46:24;;;;;;;12.07;10.98;;;19.00;99.90;;;;;;5058350;28;20195;-88
2022/10/19 10:49:00;;;;;;;10.75;9.93;;;19.30;99.30;;;;;;5047955;28;20184;-87
2022/10/19 10:51:40;;;;;;;11.35;10.43;;;19.60;97.60;;;;;;5042474;28;20223;-87
2022/10/19 10:54:16;;;;;;;11.43;10.45;;;19.90;95.10;;;;;;5043981;28;20197;-85
2022/10/19 10:56:44;;;;;;;10.60;9.63;;;20.00;94.80;;;;;;5047838;28;20188;-86
2022/10/19 10:59:18;;;;;;;10.65;9.75;;;20.30;94.30;;;;;;5046546;28;20181;-87
2022/10/19 11:02:17;;;;;;;10.70;9.88;;;20.40;93.10;;;;;;5043488;28;20662;-88
2022/10/19 11:04:49;;;;;;;9.68;8.68;;;20.70;91.30;;;;;;5010973;28;20552;-88
2022/10/19 11:07:25;;;;;;;9.57;8.70;;;21.00;89.70;;;;;;5040578;28;20189;-88
2022/10/19 11:10:05;;;;;;;9.27;8.35;;;21.10;90.10;;;;;;5042263;28;20188;-87
2022/10/19 11:12:36;;;;;;;9.63;8.90;;;21.20;88.70;;;;;;5040409;28;20218;-88
2022/10/19 11:15:12;;;;;;;9.25;8.55;;;20.80;88.50;;;;;;5045644;28;20188;-88
2022/10/19 11:17:46;;;;;;;8.85;8.05;;;20.50;90.60;;;;;;5053393;28;20195;-88
2022/10/19 11:20:17;;;;;;;8.70;7.85;;;20.50;90.50;;;;;;5026943;28;20197;-88
2022/10/19 11:23:00;;;;;;;8.90;8.20;;;20.80;89.30;;;;;;5043659;28;20211;-88
2022/10/19 11:25:40;;;;;;;7.97;7.28;;;21.10;87.90;;;;;;5048880;28;20210;-89
2022/10/19 11:28:32;;;;;;;8.40;7.72;;;21.20;86.10;;;;;;5047799;28;20192;-88
2022/10/19 11:31:13;;;;;;;8.50;7.80;;;21.10;86.40;;;;;;5041518;28;20186;-87
2022/10/19 11:34:03;;;;;;;8.18;7.15;;;21.00;86.50;;;;;;5053882;28;20205;-87
2022/10/19 11:36:48;;;;;;;7.68;7.07;;;21.20;85.40;;;;;;5043018;28;20648;-87
2022/10/19 11:39:14;;;;;;;8.25;7.55;;;21.50;83.70;;;;;;5043061;28;20264;-87
2022/10/19 11:42:07;;;;;;;7.90;7.22;;;21.40;82.90;;;;;;5045821;28;20200;-86
2022/10/19 11:44:56;;;;;;;9.13;6.63;;;21.50;82.50;;;;;;5045174;28;20191;-86
2022/10/19 11:47:58;;;;;;;7.10;6.50;;;21.60;81.30;;;;;;5054751;28;20189;-87
2022/10/19 11:50:45;;;;;;;7.00;6.50;;;21.50;81.90;;;;;;5034822;28;20233;-87
2022/10/19 11:53:26;;;;;;;6.68;6.13;;;21.40;80.90;;;;;;5043576;28;20215;-87
2022/10/19 11:56:15;;;;;;;7.90;7.13;;;21.20;82.50;;;;;;5043970;28;20262;-85
2022/10/19 11:58:50;;;;;;;7.20;6.60;;;21.20;82.60;;;;;;5041120;28;20188;-85
2022/10/19 12:01:35;;;;;;;7.75;7.05;;;21.00;84.20;;;;;;5051811;28;20279;-86
2022/10/19 12:04:06;;;;;;;7.05;6.47;;;20.90;84.30;;;;;;5045297;28;20191;-88
2022/10/19 12:06:38;;;;;;;8.45;6.63;;;20.90;85.60;;;;;;5046598;28;20219;-87
2022/10/19 12:09:12;;;;;;;7.32;6.72;;;21.10;81.90;;;;;;5054614;28;20276;-88
2022/10/19 12:11:37;;;;;;;6.57;6.07;;;20.90;83.40;;;;;;5058800;28;20200;-85
2022/10/19 12:14:09;;;;;;;6.20;5.57;;;21.00;82.80;;;;;;5045855;28;20730;-85
2022/10/19 12:16:43;;;;;;;6.78;6.20;;;21.10;82.70;;;;;;5048854;28;20197;-88
2022/10/19 12:19:25;;;;;;;6.75;6.07;;;21.30;81.60;;;;;;5026744;28;20266;-88
2022/10/19 12:21:57;;;;;;;7.28;6.63;;;21.10;82.10;;;;;;5051120;28;20251;-88
2022/10/19 12:24:27;;;;;;;6.55;6.05;;;21.00;83.20;;;;;;5043446;28;20181;-86
2022/10/19 12:26:54;;;;;;;7.10;6.45;;;20.90;83.60;;;;;;5045860;28;20202;-87
2022/10/19 12:29:26;;;;;;;5.88;5.47;;;20.80;84.00;;;;;;5051793;28;20180;-88
2022/10/19 12:31:54;;;;;;;5.65;5.15;;;20.80;84.30;;;;;;5047789;28;20186;-87
2022/10/19 12:34:34;;;;;;;5.57;5.18;;;20.90;84.40;;;;;;5064033;28;20214;-82
2022/10/19 12:37:16;;;;;;;5.68;5.25;;;21.00;83.50;;;;;;5050099;28;20191;-87
2022/10/19 12:40:46;;;;;;;9.80;5.07;;;20.90;83.30;;;;;;5044095;28;20268;-87
2022/10/19 12:43:22;;;;;;;5.63;5.15;;;20.90;82.60;;;;;;5019252;28;20212;-88
2022/10/19 12:46:00;;;;;;;5.00;4.60;;;20.70;83.20;;;;;;5017200;28;20193;-88
2022/10/19 12:48:26;;;;;;;4.35;3.95;;;20.80;84.00;;;;;;5033090;28;20262;-85
2022/10/19 12:50:56;;;;;;;4.65;4.28;;;21.10;82.30;;;;;;5042491;28;20659;-87